This is the latest recevied weather packets stored in our database for station/object IW4DZV-13. If no packets are shown the sender has not sent any weather packets the latest 10 day(s).
| Time | Temp. | Humidity | Pressure | Rain* | Wind** | Luminosity | Snow |
|---|---|---|---|---|---|---|---|
| 1777187733 | 17.78° C | 66% | 1016.4 hPa | 0 mm | - | 448 W/m² | - |
| 1777186838 | 17.22° C | 65% | 1016.3 hPa | 0 mm | - | 406 W/m² | - |
| 1777185923 | 16.67° C | 65% | 1016.2 hPa | 0 mm | - | 367 W/m² | - |
| 1777185020 | 16.11° C | 67% | 1016.1 hPa | 0 mm | - | 323 W/m² | - |
| 1777184116 | 15° C | 68% | 1015.9 hPa | 0 mm | - | 281 W/m² | - |
| 1777183212 | 14.44° C | 70% | 1015.9 hPa | 0 mm | - | 239 W/m² | - |
| 1777182310 | 13.89° C | 72% | 1015.7 hPa | 0 mm | - | 192 W/m² | - |
| 1777181411 | 12.78° C | 74% | 1015.5 hPa | 0 mm | - | 142 W/m² | - |
| 1777180501 | 11.67° C | 75% | 1015.2 hPa | 0 mm | - | 67 W/m² | - |
| 1777179657 | 11.67° C | 74% | 1015 hPa | 0 mm | - | 35 W/m² | - |
| 1777178755 | 11.67° C | 75% | 1014.8 hPa | 0 mm | - | 25 W/m² | - |
| 1777177853 | 11.67° C | 75% | 1014.6 hPa | 0 mm | - | 14 W/m² | - |
| 1777176951 | 11.11° C | 76% | 1014.5 hPa | 0 mm | - | 0 W/m² | - |
| 1777176059 | 11.11° C | 76% | 1014.4 hPa | 0 mm | - | 0 W/m² | - |
| 1777175155 | 11.67° C | 76% | 1014.3 hPa | 0 mm | - | 0 W/m² | - |
| 1777174253 | 11.67° C | 77% | 1014.3 hPa | 0 mm | - | 0 W/m² | - |
| 1777173348 | 11.67° C | 77% | 1014.1 hPa | 0 mm | - | 0 W/m² | - |
| 1777172454 | 11.11° C | 78% | 1014.1 hPa | 0 mm | - | 0 W/m² | - |
| 1777171547 | 11.11° C | 79% | 1014 hPa | 0 mm | - | 0 W/m² | - |
| 1777170646 | 11.11° C | 80% | 1014 hPa | 0 mm | - | 0 W/m² | - |
| 1777169750 | 11.11° C | 79% | 1014 hPa | 0 mm | - | 0 W/m² | - |
| 1777168851 | 11.67° C | 79% | 1014.1 hPa | 0 mm | - | 0 W/m² | - |
| 1777167953 | 11.67° C | 78% | 1014 hPa | 0 mm | - | 0 W/m² | - |
| 1777167041 | 11.67° C | 78% | 1014 hPa | 0 mm | - | 0 W/m² | - |
| 1777166144 | 11.67° C | 78% | 1014 hPa | 0 mm | - | 0 W/m² | - |
* Rain since midnight (hover to see other rain measurements)
** Current wind speed in m/s (hover to see current wind gust speed)